sensor_id;sensor_type;location;lat;lon;timestamp;pressure;altitude;pressure_sealevel;temperature;humidity
44144;BME280;43510;51.920;4.492;2022-12-20T00:01:57;67170.22;;;11.83;100.00
44144;BME280;43510;51.920;4.492;2022-12-20T00:04:22;67174.47;;;11.92;100.00
44144;BME280;43510;51.920;4.492;2022-12-20T00:06:48;67178.75;;;11.93;100.00
44144;BME280;43510;51.920;4.492;2022-12-20T00:09:14;67183.78;;;11.98;100.00
44144;BME280;43510;51.920;4.492;2022-12-20T00:11:40;67173.72;;;11.89;100.00
44144;BME280;43510;51.920;4.492;2022-12-20T00:14:08;67174.47;;;11.92;100.00
44144;BME280;43510;51.920;4.492;2022-12-20T00:16:35;67176.69;;;11.94;100.00
44144;BME280;43510;51.920;4.492;2022-12-20T00:19:02;67175.41;;;11.90;100.00
44144;BME280;43510;51.920;4.492;2022-12-20T00:21:29;67174.63;;;11.94;100.00
44144;BME280;43510;51.920;4.492;2022-12-20T00:23:57;67173.34;;;11.91;100.00
44144;BME280;43510;51.920;4.492;2022-12-20T00:26:26;67182.66;;;11.97;100.00
44144;BME280;43510;51.920;4.492;2022-12-20T00:28:52;67190.16;;;11.99;100.00
44144;BME280;43510;51.920;4.492;2022-12-20T00:31:20;67177.84;;;11.88;100.00
44144;BME280;43510;51.920;4.492;2022-12-20T00:33:48;67160.31;;;11.76;100.00
44144;BME280;43510;51.920;4.492;2022-12-20T00:36:15;67133.50;;;11.52;100.00
44144;BME280;43510;51.920;4.492;2022-12-20T00:38:44;67107.84;;;11.29;100.00
44144;BME280;43510;51.920;4.492;2022-12-20T00:41:14;67098.56;;;11.16;100.00
44144;BME280;43510;51.920;4.492;2022-12-20T00:43:40;67075.81;;;11.04;100.00
44144;BME280;43510;51.920;4.492;2022-12-20T00:46:08;67069.72;;;10.92;100.00
44144;BME280;43510;51.920;4.492;2022-12-20T00:48:34;67060.00;;;10.88;100.00
44144;BME280;43510;51.920;4.492;2022-12-20T00:51:05;67067.66;;;10.92;100.00
44144;BME280;43510;51.920;4.492;2022-12-20T00:53:32;67054.03;;;10.85;100.00
44144;BME280;43510;51.920;4.492;2022-12-20T00:55:58;67055.38;;;10.81;100.00
44144;BME280;43510;51.920;4.492;2022-12-20T00:58:24;67064.53;;;10.85;100.00
44144;BME280;43510;51.920;4.492;2022-12-20T01:00:51;67057.63;;;10.83;100.00
44144;BME280;43510;51.920;4.492;2022-12-20T01:03:17;67051.09;;;10.80;100.00
44144;BME280;43510;51.920;4.492;2022-12-20T01:05:53;67056.88;;;10.80;100.00
44144;BME280;43510;51.920;4.492;2022-12-20T01:08:21;67066.75;;;10.87;100.00
44144;BME280;43510;51.920;4.492;2022-12-20T01:10:58;67067.09;;;10.92;100.00
44144;BME280;43510;51.920;4.492;2022-12-20T01:13:24;67060.97;;;10.86;100.00
44144;BME280;43510;51.920;4.492;2022-12-20T01:15:50;67064.31;;;10.89;100.00
44144;BME280;43510;51.920;4.492;2022-12-20T01:18:18;67062.06;;;10.87;100.00
44144;BME280;43510;51.920;4.492;2022-12-20T01:20:44;67095.00;;;11.17;100.00
44144;BME280;43510;51.920;4.492;2022-12-20T01:23:11;67108.38;;;11.29;100.00
44144;BME280;43510;51.920;4.492;2022-12-20T01:25:37;67118.59;;;11.41;100.00
44144;BME280;43510;51.920;4.492;2022-12-20T01:28:03;67130.16;;;11.49;100.00
44144;BME280;43510;51.920;4.492;2022-12-20T01:30:28;67136.88;;;11.55;100.00
44144;BME280;43510;51.920;4.492;2022-12-20T01:32:54;67128.50;;;11.48;100.00
44144;BME280;43510;51.920;4.492;2022-12-20T01:35:19;67141.88;;;11.60;100.00
44144;BME280;43510;51.920;4.492;2022-12-20T01:37:47;67145.44;;;11.58;100.00
44144;BME280;43510;51.920;4.492;2022-12-20T01:40:12;67146.97;;;11.57;100.00
44144;BME280;43510;51.920;4.492;2022-12-20T01:42:40;67140.06;;;11.56;100.00
44144;BME280;43510;51.920;4.492;2022-12-20T01:45:08;67141.31;;;11.59;100.00
44144;BME280;43510;51.920;4.492;2022-12-20T01:47:37;67143.00;;;11.61;100.00
44144;BME280;43510;51.920;4.492;2022-12-20T01:50:04;67113.75;;;11.39;100.00
44144;BME280;43510;51.920;4.492;2022-12-20T01:52:35;67127.94;;;11.47;100.00
44144;BME280;43510;51.920;4.492;2022-12-20T01:55:12;67135.91;;;11.57;100.00
44144;BME280;43510;51.920;4.492;2022-12-20T01:57:47;67128.50;;;11.48;100.00
44144;BME280;43510;51.920;4.492;2022-12-20T02:00:14;67130.72;;;11.50;100.00
44144;BME280;43510;51.920;4.492;2022-12-20T02:02:41;67130.16;;;11.49;100.00
44144;BME280;43510;51.920;4.492;2022-12-20T02:05:08;67124.03;;;11.43;100.00
44144;BME280;43510;51.920;4.492;2022-12-20T02:07:34;67113.75;;;11.39;100.00
44144;BME280;43510;51.920;4.492;2022-12-20T02:10:03;67128.50;;;11.48;100.00
44144;BME280;43510;51.920;4.492;2022-12-20T02:12:38;67129.19;;;11.51;100.00
44144;BME280;43510;51.920;4.492;2022-12-20T02:15:21;67138.94;;;11.55;100.00
44144;BME280;43510;51.920;4.492;2022-12-20T02:21:20;67138.53;;;11.57;100.00
44144;BME280;43510;51.920;4.492;2022-12-20T02:23:55;67131.25;;;11.50;100.00
44144;BME280;43510;51.920;4.492;2022-12-20T02:29:32;67142.50;;;11.53;100.00
44144;BME280;43510;51.920;4.492;2022-12-20T02:34:28;67118.44;;;11.38;100.00
44144;BME280;43510;51.920;4.492;2022-12-20T02:36:57;67124.56;;;11.44;100.00
44144;BME280;43510;51.920;4.492;2022-12-20T02:39:23;67133.88;;;11.50;100.00
44144;BME280;43510;51.920;4.492;2022-12-20T02:41:57;67140.06;;;11.56;100.00
44144;BME280;43510;51.920;4.492;2022-12-20T02:44:26;67137.81;;;11.54;100.00
44144;BME280;43510;51.920;4.492;2022-12-20T02:47:18;67135.34;;;11.56;100.00
44144;BME280;43510;51.920;4.492;2022-12-20T02:49:46;67131.81;;;11.51;100.00
44144;BME280;43510;51.920;4.492;2022-12-20T02:52:14;67128.25;;;11.52;100.00
44144;BME280;43510;51.920;4.492;2022-12-20T02:54:40;67120.66;;;11.40;100.00
44144;BME280;43510;51.920;4.492;2022-12-20T02:57:25;67135.19;;;11.54;100.00
44144;BME280;43510;51.920;4.492;2022-12-20T02:59:58;67126.44;;;11.48;100.00
44144;BME280;43510;51.920;4.492;2022-12-20T03:02:28;67116.53;;;11.41;100.00
44144;BME280;43510;51.920;4.492;2022-12-20T03:05:15;67113.97;;;11.34;100.00
44144;BME280;43510;51.920;4.492;2022-12-20T03:07:40;67104.50;;;11.26;100.00
44144;BME280;43510;51.920;4.492;2022-12-20T03:10:06;67106.16;;;11.27;100.00
44144;BME280;43510;51.920;4.492;2022-12-20T03:12:32;67113.81;;;11.32;100.00
44144;BME280;43510;51.920;4.492;2022-12-20T03:14:57;67133.50;;;11.52;100.00
44144;BME280;43510;51.920;4.492;2022-12-20T03:17:23;67143.94;;;11.59;100.00
44144;BME280;43510;51.920;4.492;2022-12-20T03:19:48;67141.31;;;11.59;100.00
44144;BME280;43510;51.920;4.492;2022-12-20T03:22:14;67142.03;;;11.62;100.00
44144;BME280;43510;51.920;4.492;2022-12-20T03:24:39;67163.69;;;11.79;100.00
44144;BME280;43510;51.920;4.492;2022-12-20T03:27:05;67171.66;;;11.89;100.00
44144;BME280;43510;51.920;4.492;2022-12-20T03:29:32;67183.78;;;11.98;100.00
44144;BME280;43510;51.920;4.492;2022-12-20T03:31:58;67180.59;;;11.97;100.00
44144;BME280;43510;51.920;4.492;2022-12-20T03:34:23;67193.28;;;12.06;100.00
44144;BME280;43510;51.920;4.492;2022-12-20T03:36:48;67201.66;;;12.14;100.00
44144;BME280;43510;51.920;4.492;2022-12-20T03:39:14;67213.38;;;12.24;100.00
44144;BME280;43510;51.920;4.492;2022-12-20T03:41:40;67214.09;;;12.27;100.00
44144;BME280;43510;51.920;4.492;2022-12-20T03:44:05;67220.09;;;12.31;100.00
44144;BME280;43510;51.920;4.492;2022-12-20T03:46:30;67218.81;;;12.27;100.00
44144;BME280;43510;51.920;4.492;2022-12-20T03:48:56;67223.97;;;12.34;100.00
44144;BME280;43510;51.920;4.492;2022-12-20T03:51:21;67223.44;;;12.34;100.00
44144;BME280;43510;51.920;4.492;2022-12-20T03:53:47;67203.66;;;12.20;100.00
44144;BME280;43510;51.920;4.492;2022-12-20T03:56:12;67220.66;;;12.31;100.00
44144;BME280;43510;51.920;4.492;2022-12-20T03:58:38;67235.56;;;12.42;100.00
44144;BME280;43510;51.920;4.492;2022-12-20T04:01:26;67244.09;;;12.52;100.00
44144;BME280;43510;51.920;4.492;2022-12-20T04:03:52;67227.34;;;12.37;100.00
44144;BME280;43510;51.920;4.492;2022-12-20T04:06:19;67199.41;;;12.12;100.00
44144;BME280;43510;51.920;4.492;2022-12-20T04:08:45;67180.81;;;11.93;100.00
44144;BME280;43510;51.920;4.492;2022-12-20T04:11:11;67164.78;;;11.80;100.00
44144;BME280;43510;51.920;4.492;2022-12-20T04:13:46;67151.03;;;11.63;100.00
44144;BME280;43510;51.920;4.492;2022-12-20T04:16:13;67131.81;;;11.51;100.00
44144;BME280;43510;51.920;4.492;2022-12-20T04:18:39;67120.84;;;11.43;100.00
44144;BME280;43510;51.920;4.492;2022-12-20T04:21:05;67132.63;;;11.46;100.00
44144;BME280;43510;51.920;4.492;2022-12-20T04:23:36;67134.63;;;11.53;100.00
44144;BME280;43510;51.920;4.492;2022-12-20T04:26:03;67132.38;;;11.51;100.00
44144;BME280;43510;51.920;4.492;2022-12-20T04:28:29;67141.88;;;11.60;100.00
44144;BME280;43510;51.920;4.492;2022-12-20T04:30:55;67149.16;;;11.66;100.00
44144;BME280;43510;51.920;4.492;2022-12-20T04:33:21;67148.59;;;11.66;100.00
44144;BME280;43510;51.920;4.492;2022-12-20T04:35:49;67158.09;;;11.74;100.00
44144;BME280;43510;51.920;4.492;2022-12-20T04:38:16;67160.31;;;11.76;100.00
44144;BME280;43510;51.920;4.492;2022-12-20T04:40:41;67149.84;;;11.69;100.00
44144;BME280;43510;51.920;4.492;2022-12-20T04:43:07;67173.34;;;11.91;100.00
44144;BME280;43510;51.920;4.492;2022-12-20T04:45:33;67175.97;;;11.91;100.00
44144;BME280;43510;51.920;4.492;2022-12-20T04:47:58;67168.31;;;11.86;100.00
44144;BME280;43510;51.920;4.492;2022-12-20T04:50:24;67178.53;;;11.98;100.00
44144;BME280;43510;51.920;4.492;2022-12-20T04:52:50;67171.50;;;11.86;100.00
44144;BME280;43510;51.920;4.492;2022-12-20T04:55:38;67180.44;;;11.95;100.00
44144;BME280;43510;51.920;4.492;2022-12-20T04:58:05;67183.06;;;11.95;100.00
44144;BME280;43510;51.920;4.492;2022-12-20T05:00:31;67187.91;;;11.97;100.00
44144;BME280;43510;51.920;4.492;2022-12-20T05:02:56;67195.72;;;12.04;100.00
44144;BME280;43510;51.920;4.492;2022-12-20T05:05:22;67198.69;;;12.09;100.00
44144;BME280;43510;51.920;4.492;2022-12-20T05:07:48;67203.16;;;12.13;100.00
44144;BME280;43510;51.920;4.492;2022-12-20T05:10:14;67198.84;;;12.11;100.00
44144;BME280;43510;51.920;4.492;2022-12-20T05:12:39;67186.97;;;11.98;100.00
44144;BME280;43510;51.920;4.492;2022-12-20T05:15:05;67200.22;;;12.08;100.00
44144;BME280;43510;51.920;4.492;2022-12-20T05:17:31;67209.88;;;12.19;100.00
44144;BME280;43510;51.920;4.492;2022-12-20T05:19:57;67193.03;;;12.11;100.00
44144;BME280;43510;51.920;4.492;2022-12-20T05:22:22;67208.19;;;12.17;100.00
44144;BME280;43510;51.920;4.492;2022-12-20T05:25:09;67206.13;;;12.18;100.00
44144;BME280;43510;51.920;4.492;2022-12-20T05:27:53;67209.31;;;12.18;100.00
44144;BME280;43510;51.920;4.492;2022-12-20T05:30:18;67207.78;;;12.19;100.00
44144;BME280;43510;51.920;4.492;2022-12-20T05:32:44;67218.97;;;12.30;100.00
44144;BME280;43510;51.920;4.492;2022-12-20T05:35:10;67218.97;;;12.30;100.00
44144;BME280;43510;51.920;4.492;2022-12-20T05:37:35;67222.47;;;12.35;100.00
44144;BME280;43510;51.920;4.492;2022-12-20T05:40:02;67222.31;;;12.33;100.00
44144;BME280;43510;51.920;4.492;2022-12-20T05:42:29;67227.34;;;12.37;100.00
44144;BME280;43510;51.920;4.492;2022-12-20T05:44:54;67226.00;;;12.41;100.00
44144;BME280;43510;51.920;4.492;2022-12-20T05:47:20;67226.78;;;12.37;100.00
44144;BME280;43510;51.920;4.492;2022-12-20T05:49:45;67204.44;;;12.16;100.00
44144;BME280;43510;51.920;4.492;2022-12-20T05:52:18;67227.34;;;12.37;100.00
44144;BME280;43510;51.920;4.492;2022-12-20T05:54:43;67234.44;;;12.41;100.00
44144;BME280;43510;51.920;4.492;2022-12-20T05:57:09;67237.41;;;12.46;100.00
44144;BME280;43510;51.920;4.492;2022-12-20T05:59:35;67230.31;;;12.42;100.00
44144;BME280;43510;51.920;4.492;2022-12-20T06:02:00;67234.06;;;12.43;100.00
44144;BME280;43510;51.920;4.492;2022-12-20T06:04:26;67231.81;;;12.41;100.00
44144;BME280;43510;51.920;4.492;2022-12-20T06:06:51;67230.13;;;12.40;100.00
44144;BME280;43510;51.920;4.492;2022-12-20T06:09:17;67236.28;;;12.45;100.00
44144;BME280;43510;51.920;4.492;2022-12-20T06:11:42;67218.56;;;12.32;100.00
44144;BME280;43510;51.920;4.492;2022-12-20T06:14:08;67218.97;;;12.30;100.00
44144;BME280;43510;51.920;4.492;2022-12-20T06:16:33;67235.72;;;12.45;100.00
44144;BME280;43510;51.920;4.492;2022-12-20T06:19:00;67223.97;;;12.34;100.00
44144;BME280;43510;51.920;4.492;2022-12-20T06:21:26;67240.03;;;12.46;100.00
44144;BME280;43510;51.920;4.492;2022-12-20T06:23:53;67228.06;;;12.40;100.00
44144;BME280;43510;51.920;4.492;2022-12-20T06:26:19;67235.88;;;12.47;100.00
44144;BME280;43510;51.920;4.492;2022-12-20T06:28:47;67240.03;;;12.46;100.00
44144;BME280;43510;51.920;4.492;2022-12-20T06:31:17;67226.97;;;12.39;100.00
44144;BME280;43510;51.920;4.492;2022-12-20T06:33:43;67254.56;;;12.59;100.00
44144;BME280;43510;51.920;4.492;2022-12-20T06:36:09;67247.84;;;12.53;100.00
44144;BME280;43510;51.920;4.492;2022-12-20T06:38:35;67251.78;;;12.57;100.00
44144;BME280;43510;51.920;4.492;2022-12-20T06:41:00;67251.94;;;12.59;100.00
44144;BME280;43510;51.920;4.492;2022-12-20T06:43:26;67237.41;;;12.46;100.00
44144;BME280;43510;51.920;4.492;2022-12-20T06:45:52;67247.47;;;12.55;100.00
44144;BME280;43510;51.920;4.492;2022-12-20T06:48:20;67248.97;;;12.54;100.00
44144;BME280;43510;51.920;4.492;2022-12-20T06:50:47;67251.59;;;12.54;100.00
44144;BME280;43510;51.920;4.492;2022-12-20T06:53:13;67244.84;;;12.55;100.00
44144;BME280;43510;51.920;4.492;2022-12-20T06:55:38;67246.66;;;12.59;100.00
44144;BME280;43510;51.920;4.492;2022-12-20T06:58:04;67248.19;;;12.58;100.00
44144;BME280;43510;51.920;4.492;2022-12-20T07:00:30;67250.41;;;12.60;100.00
44144;BME280;43510;51.920;4.492;2022-12-20T07:02:56;67253.22;;;12.63;100.00
44144;BME280;43510;51.920;4.492;2022-12-20T07:05:21;67260.13;;;12.64;100.00
44144;BME280;43510;51.920;4.492;2022-12-20T07:07:47;67261.44;;;12.68;100.00
44144;BME280;43510;51.920;4.492;2022-12-20T07:10:12;67230.69;;;12.40;100.00
44144;BME280;43510;51.920;4.492;2022-12-20T07:12:39;67208.91;;;12.20;100.00
44144;BME280;43510;51.920;4.492;2022-12-20T07:15:05;67178.75;;;11.93;100.00
44144;BME280;43510;51.920;4.492;2022-12-20T07:17:31;67168.16;;;11.83;100.00
44144;BME280;43510;51.920;4.492;2022-12-20T07:19:57;67168.72;;;11.84;100.00
44144;BME280;43510;51.920;4.492;2022-12-20T07:22:22;67163.50;;;11.77;100.00
44144;BME280;43510;51.920;4.492;2022-12-20T07:24:48;67166.69;;;11.77;100.00
44144;BME280;43510;51.920;4.492;2022-12-20T07:27:14;67158.66;;;11.75;100.00
44144;BME280;43510;51.920;4.492;2022-12-20T07:29:40;67151.38;;;11.68;100.00
44144;BME280;43510;51.920;4.492;2022-12-20T07:32:06;67152.47;;;11.69;100.00
44144;BME280;43510;51.920;4.492;2022-12-20T07:34:32;67150.41;;;11.70;100.00
44144;BME280;43510;51.920;4.492;2022-12-20T07:36:58;67157.72;;;11.69;100.00
44144;BME280;43510;51.920;4.492;2022-12-20T07:39:23;67151.78;;;11.66;100.00
44144;BME280;43510;51.920;4.492;2022-12-20T07:41:53;67145.22;;;11.63;100.00
44144;BME280;43510;51.920;4.492;2022-12-20T07:44:19;67145.06;;;11.60;100.00
44144;BME280;43510;51.920;4.492;2022-12-20T07:46:45;67139.09;;;11.57;100.00
44144;BME280;43510;51.920;4.492;2022-12-20T07:49:11;67129.03;;;11.48;100.00
44144;BME280;43510;51.920;4.492;2022-12-20T07:51:43;67132.38;;;11.51;100.00
44144;BME280;43510;51.920;4.492;2022-12-20T07:54:17;67129.03;;;11.48;100.00
44144;BME280;43510;51.920;4.492;2022-12-20T07:56:51;67125.69;;;11.45;100.00
44144;BME280;43510;51.920;4.492;2022-12-20T07:59:22;67127.59;;;11.42;100.00
44144;BME280;43510;51.920;4.492;2022-12-20T08:01:49;67116.78;;;11.37;100.00
44144;BME280;43510;51.920;4.492;2022-12-20T08:04:23;67118.59;;;11.41;100.00
44144;BME280;43510;51.920;4.492;2022-12-20T08:06:51;67121.22;;;11.41;100.00
44144;BME280;43510;51.920;4.492;2022-12-20T08:09:18;67123.47;;;11.43;100.00
44144;BME280;43510;51.920;4.492;2022-12-20T08:11:46;67127.94;;;11.47;100.00
44144;BME280;43510;51.920;4.492;2022-12-20T08:14:13;67143.56;;;11.61;100.00
44144;BME280;43510;51.920;4.492;2022-12-20T08:16:38;67155.84;;;11.72;100.00
44144;BME280;43510;51.920;4.492;2022-12-20T08:19:04;67170.78;;;11.83;100.00
44144;BME280;43510;51.920;4.492;2022-12-20T08:21:29;67177.84;;;11.88;100.00
44144;BME280;43510;51.920;4.492;2022-12-20T08:23:55;67189.75;;;12.01;100.00
44144;BME280;43510;51.920;4.492;2022-12-20T08:26:21;67194.41;;;12.07;100.00
44144;BME280;43510;51.920;4.492;2022-12-20T08:28:47;67204.06;;;12.18;100.00
44144;BME280;43510;51.920;4.492;2022-12-20T08:31:12;67201.97;;;12.19;100.00
44144;BME280;43510;51.920;4.492;2022-12-20T08:33:39;67189.53;;;12.05;100.00
44144;BME280;43510;51.920;4.492;2022-12-20T08:36:10;67189.94;;;12.03;100.00
44144;BME280;43510;51.920;4.492;2022-12-20T08:38:36;67167.59;;;11.83;100.00
44144;BME280;43510;51.920;4.492;2022-12-20T08:41:08;67146.91;;;11.64;100.00
44144;BME280;43510;51.920;4.492;2022-12-20T08:43:35;67145.06;;;11.60;100.00
44144;BME280;43510;51.920;4.492;2022-12-20T08:46:02;67135.19;;;11.54;100.00
44144;BME280;43510;51.920;4.492;2022-12-20T08:48:28;67129.59;;;11.49;100.00
44144;BME280;43510;51.920;4.492;2022-12-20T08:50:55;67124.56;;;11.44;100.00
44144;BME280;43510;51.920;4.492;2022-12-20T08:53:21;67124.03;;;11.43;100.00
44144;BME280;43510;51.920;4.492;2022-12-20T08:55:46;67130.38;;;11.44;100.00
44144;BME280;43510;51.920;4.492;2022-12-20T08:58:12;67130.16;;;11.49;100.00
44144;BME280;43510;51.920;4.492;2022-12-20T09:00:37;67131.25;;;11.50;100.00
44144;BME280;43510;51.920;4.492;2022-12-20T09:03:03;67129.59;;;11.49;100.00
44144;BME280;43510;51.920;4.492;2022-12-20T09:05:29;67129.59;;;11.49;100.00
44144;BME280;43510;51.920;4.492;2022-12-20T09:07:54;67122.50;;;11.44;100.00
44144;BME280;43510;51.920;4.492;2022-12-20T09:10:21;67117.09;;;11.42;100.00
44144;BME280;43510;51.920;4.492;2022-12-20T09:12:46;67120.09;;;11.40;100.00
44144;BME280;43510;51.920;4.492;2022-12-20T09:15:14;67118.44;;;11.38;100.00
44144;BME280;43510;51.920;4.492;2022-12-20T09:17:39;67124.19;;;11.46;100.00
44144;BME280;43510;51.920;4.492;2022-12-20T09:20:06;67123.06;;;11.45;100.00
44144;BME280;43510;51.920;4.492;2022-12-20T09:22:31;67114.16;;;11.37;100.00
44144;BME280;43510;51.920;4.492;2022-12-20T09:25:00;67130.16;;;11.49;100.00
44144;BME280;43510;51.920;4.492;2022-12-20T09:27:25;67134.06;;;11.53;100.00
44144;BME280;43510;51.920;4.492;2022-12-20T09:29:51;67125.31;;;11.47;100.00
44144;BME280;43510;51.920;4.492;2022-12-20T09:32:16;67128.63;;;11.50;100.00
44144;BME280;43510;51.920;4.492;2022-12-20T09:34:43;67113.91;;;11.41;100.00
44144;BME280;43510;51.920;4.492;2022-12-20T09:37:08;67126.44;;;11.48;100.00
44144;BME280;43510;51.920;4.492;2022-12-20T09:39:36;67116.94;;;11.39;100.00
44144;BME280;43510;51.920;4.492;2022-12-20T09:42:06;67129.19;;;11.51;100.00
44144;BME280;43510;51.920;4.492;2022-12-20T09:44:35;67132.38;;;11.51;100.00
44144;BME280;43510;51.920;4.492;2022-12-20T09:47:13;67133.13;;;11.54;100.00
44144;BME280;43510;51.920;4.492;2022-12-20T09:49:42;67119.00;;;11.39;100.00
44144;BME280;43510;51.920;4.492;2022-12-20T10:00:55;67121.00;;;11.45;100.00
44144;BME280;43510;51.920;4.492;2022-12-20T10:03:35;67136.88;;;11.55;100.00
44144;BME280;43510;51.920;4.492;2022-12-20T10:06:22;67130.16;;;11.49;100.00
44144;BME280;43510;51.920;4.492;2022-12-20T10:08:56;67141.72;;;11.57;100.00
44144;BME280;43510;51.920;4.492;2022-12-20T10:16:47;67132.38;;;11.51;100.00
44144;BME280;43510;51.920;4.492;2022-12-20T10:22:08;67137.97;;;11.56;100.00
44144;BME280;43510;51.920;4.492;2022-12-20T10:24:36;67127.69;;;11.52;100.00
44144;BME280;43510;51.920;4.492;2022-12-20T10:27:21;67138.94;;;11.55;100.00
44144;BME280;43510;51.920;4.492;2022-12-20T10:29:48;67132.56;;;11.54;100.00
44144;BME280;43510;51.920;4.492;2022-12-20T10:32:21;67137.44;;;11.56;100.00
44144;BME280;43510;51.920;4.492;2022-12-20T10:34:56;67139.66;;;11.58;100.00
44144;BME280;43510;51.920;4.492;2022-12-20T10:37:24;67134.63;;;11.53;100.00
44144;BME280;43510;51.920;4.492;2022-12-20T10:39:50;67139.09;;;11.57;100.00
44144;BME280;43510;51.920;4.492;2022-12-20T10:44:59;67132.78;;;11.49;100.00
44144;BME280;43510;51.920;4.492;2022-12-20T10:50:08;67147.28;;;11.62;100.00
44144;BME280;43510;51.920;4.492;2022-12-20T10:52:37;67150.66;;;11.65;100.00
44144;BME280;43510;51.920;4.492;2022-12-20T10:57:52;67142.59;;;11.63;100.00
44144;BME280;43510;51.920;4.492;2022-12-20T11:00:28;67145.41;;;11.65;100.00
44144;BME280;43510;51.920;4.492;2022-12-20T11:06:01;67160.31;;;11.76;100.00
44144;BME280;43510;51.920;4.492;2022-12-20T11:08:30;67153.59;;;11.70;100.00
44144;BME280;43510;51.920;4.492;2022-12-20T11:11:15;67159.63;;;11.73;100.00
44144;BME280;43510;51.920;4.492;2022-12-20T11:13:42;67151.94;;;11.69;100.00
44144;BME280;43510;51.920;4.492;2022-12-20T11:16:44;67171.50;;;11.86;100.00
44144;BME280;43510;51.920;4.492;2022-12-20T11:22:09;67167.59;;;11.83;100.00
44144;BME280;43510;51.920;4.492;2022-12-20T11:35:13;67165.34;;;11.81;100.00
44144;BME280;43510;51.920;4.492;2022-12-20T11:40:26;67169.25;;;11.84;100.00
44144;BME280;43510;51.920;4.492;2022-12-20T11:43:21;67189.69;;;12.08;100.00
44144;BME280;43510;51.920;4.492;2022-12-20T11:51:44;67198.28;;;12.11;100.00
44144;BME280;43510;51.920;4.492;2022-12-20T11:54:22;67202.78;;;12.15;100.00
44144;BME280;43510;51.920;4.492;2022-12-20T11:56:55;67194.53;;;12.10;100.00
44144;BME280;43510;51.920;4.492;2022-12-20T11:59:59;67213.75;;;12.22;100.00
44144;BME280;43510;51.920;4.492;2022-12-20T12:02:26;67236.84;;;12.46;100.00
44144;BME280;43510;51.920;4.492;2022-12-20T12:05:02;67208.34;;;12.20;100.00
44144;BME280;43510;51.920;4.492;2022-12-20T12:07:28;67242.59;;;12.53;100.00
44144;BME280;43510;51.920;4.492;2022-12-20T12:10:03;67215.63;;;12.26;100.00
44144;BME280;43510;51.920;4.492;2022-12-20T12:12:41;67216.19;;;12.27;100.00
44144;BME280;43510;51.920;4.492;2022-12-20T12:17:59;67208.91;;;12.20;100.00
44144;BME280;43510;51.920;4.492;2022-12-20T12:20:36;67195.50;;;12.08;100.00
44144;BME280;43510;51.920;4.492;2022-12-20T12:23:31;67197.91;;;12.13;100.00
44144;BME280;43510;51.920;4.492;2022-12-20T12:26:08;67189.38;;;12.03;100.00
44144;BME280;43510;51.920;4.492;2022-12-20T12:28:34;67174.84;;;11.90;100.00
44144;BME280;43510;51.920;4.492;2022-12-20T12:31:12;67177.09;;;11.92;100.00
44144;BME280;43510;51.920;4.492;2022-12-20T12:33:49;67182.34;;;11.92;100.00
44144;BME280;43510;51.920;4.492;2022-12-20T12:42:03;67177.09;;;11.92;100.00
44144;BME280;43510;51.920;4.492;2022-12-20T12:48:04;67171.91;;;11.84;100.00
44144;BME280;43510;51.920;4.492;2022-12-20T12:50:42;67167.75;;;11.85;100.00
44144;BME280;43510;51.920;4.492;2022-12-20T12:53:13;67169.25;;;11.84;100.00
44144;BME280;43510;51.920;4.492;2022-12-20T12:55:44;67160.31;;;11.76;100.00
44144;BME280;43510;51.920;4.492;2022-12-20T12:58:31;67173.16;;;11.88;100.00
44144;BME280;43510;51.920;4.492;2022-12-20T13:00:59;67162.16;;;11.80;100.00
44144;BME280;43510;51.920;4.492;2022-12-20T13:11:40;67173.72;;;11.89;100.00
44144;BME280;43510;51.920;4.492;2022-12-20T13:21:46;67157.00;;;11.73;100.00
44144;BME280;43510;51.920;4.492;2022-12-20T13:37:58;67173.72;;;11.89;100.00
44144;BME280;43510;51.920;4.492;2022-12-20T13:40:45;67173.72;;;11.89;100.00
44144;BME280;43510;51.920;4.492;2022-12-20T13:45:56;67178.97;;;11.89;100.00
44144;BME280;43510;51.920;4.492;2022-12-20T13:48:55;67188.25;;;12.02;100.00
44144;BME280;43510;51.920;4.492;2022-12-20T13:51:25;67181.56;;;11.96;100.00
44144;BME280;43510;51.920;4.492;2022-12-20T13:54:05;67173.34;;;11.91;100.00
44144;BME280;43510;51.920;4.492;2022-12-20T13:59:06;67165.91;;;11.81;100.00
44144;BME280;43510;51.920;4.492;2022-12-20T14:01:46;67164.78;;;11.80;100.00
44144;BME280;43510;51.920;4.492;2022-12-20T14:04:13;67157.00;;;11.73;100.00
44144;BME280;43510;51.920;4.492;2022-12-20T14:06:48;67162.00;;;11.78;100.00
44144;BME280;43510;51.920;4.492;2022-12-20T14:09:35;67170.38;;;11.85;100.00
44144;BME280;43510;51.920;4.492;2022-12-20T14:12:15;67165.91;;;11.81;100.00
44144;BME280;43510;51.920;4.492;2022-12-20T14:14:46;67160.66;;;11.81;100.00
44144;BME280;43510;51.920;4.492;2022-12-20T14:20:16;67175.41;;;11.90;100.00
44144;BME280;43510;51.920;4.492;2022-12-20T14:23:09;67175.97;;;11.91;100.00
44144;BME280;43510;51.920;4.492;2022-12-20T14:28:04;67158.25;;;11.77;100.00
44144;BME280;43510;51.920;4.492;2022-12-20T14:30:41;67168.72;;;11.84;100.00
44144;BME280;43510;51.920;4.492;2022-12-20T14:33:36;67170.53;;;11.88;100.00
44144;BME280;43510;51.920;4.492;2022-12-20T14:36:09;67166.47;;;11.82;100.00
44144;BME280;43510;51.920;4.492;2022-12-20T14:38:43;67157.00;;;11.73;100.00
44144;BME280;43510;51.920;4.492;2022-12-20T14:41:34;67171.50;;;11.86;100.00
44144;BME280;43510;51.920;4.492;2022-12-20T14:46:33;67151.16;;;11.73;100.00
44144;BME280;43510;51.920;4.492;2022-12-20T14:49:22;67160.66;;;11.81;100.00
44144;BME280;43510;51.920;4.492;2022-12-20T14:51:50;67153.22;;;11.72;100.00
44144;BME280;43510;51.920;4.492;2022-12-20T14:54:26;67153.59;;;11.70;100.00
44144;BME280;43510;51.920;4.492;2022-12-20T14:56:52;67151.53;;;11.71;100.00